Detall de PIREP

Printer-friendly versionPDF version

[2013/08/18 06:22:00]
Flight IATA:CT2111
Pilot Number:041
Company ICAO:CAT
Aircraft Type:A320/E
PAX:96
Departing Airport: LEST
Destination Airport: LEVC
Alternate Airport:LEBL
Online: VATSIM
Route:FORNO UN733 ZMR UL155 KALMA UH100 CJN UN733 CLS
Flight Level:FL340
No Slew and time accel
No pause
Crash detect
Detect pilot in Cockpit between each 30 and 45 minutes
06:22 Zero fuel Weight: 134051 Lbs, Fuel Weight: 17491 Lbs
06:22 VATSIM:LEST 180600Z 35005KT 310V020 0400 R17/0400V0650U R35/0400N FG VV001 14/14 Q1020 TEMPO 0800 FG
06:22 VATSIM:LEVC 180600Z VRB02KT 9999 FEW013 25/21 Q1017 NOSIG
06:22 VOICE CATALONIAN
06:25 Parking Brakes off
06:42 Take-off
06:42 Take off Weight: 150747 Lbs
06:42 Wind: 356º @ 004 Knots Heading: 346º
06:42 POS N42º 54´ 30´´ W008º 25´ 09´´
06:42 Gear Up: 184 Knots
06:42 Flaps:3 at 184 Knots
06:42 Flaps:2 at 179 Knots
06:43 Flaps:1 at 175 Knots
06:43 Flaps:0 at 201 Knots
06:57 Wind:317º@030 Knots Heading: 123º Ground Speed: 484 Knots Altitude 29908 ft
07:00 TOC
07:00 Fuel Weight: 12445 Lb
07:12 Wind:341º@039 Knots Heading: 135º Ground Speed: 504 Knots Altitude 34196 ft
07:23 TOD
07:23 Fuel Weight: 10204 Lb
07:27 Wind:357º@029 Knots Heading: 102º Ground Speed: 383 Knots Altitude 25387 ft
07:42 Wind:157º@009 Knots Heading: 117º Ground Speed: 265 Knots Altitude 5688 ft
07:44 Flaps:1 at 224 Knots
07:44 Flaps:3 at 200 Knots
07:45 Flaps:2 at 163 Knots
07:45 Flaps:3 at 163 Knots
07:45 Flaps:4 at 162 Knots
07:45 Flaps:3 at 162 Knots
07:45 Flaps:4 at 162 Knots
07:45 Gear Down: 147 Knots
07:46 Flaps:5 at 146 Knots
07:48 TouchDown:Rate -115 ft/min Speed: 134 Knots
07:49 VATSIM:LEVC 180700Z VRB01KT 9999 FEW015 26/21 Q1017 NOSIG
07:49 Land
07:49 Wind:081º@001 Knots
07:49 Heading: 115º
07:49 Flight Duration: 01:07
07:49 Landing Weight: 142413 Lbs
07:49 POS N39º 29´ 25´´ W000º 29´ 05´´
07:50 Parking brakes on
07:50 Block to Block Duration: 01:25
07:50 Final Fuel: 8196 Lbls
07:50 Spent Fuel: 9294 Lbls
07:50 Flight Length: 436 NM
07:50 TOD Land Length: 126 NM

Exportar CSV

Powered by Drupal - Modified by Danger4k